Flight Track Log - Related Links

Times and Time Zones

All times are in EST time to prevent confusion due to time zone crossing. See the N269AM flight status page for this flight to view local times or setup timezone preferences in your user account.

Time Position Orientation Groundspeed Altitude Reporting Facility
EST Latitude Longitude Course Direction KTS MPH feet Rate Location/Type
Sat 05:28:05 PM 45.2364 -122.8014 340° North 73 84 1,600  Level Seattle Center
Sat 05:28:18 PM 45.2375 -122.8072 285° West 66 76 1,700 575 Climbing Seattle Center
Sat 05:29:18 PM 45.2208 -122.8156 199° South 70 81 2,300 645 Climbing Seattle Center
Sat 05:30:00 PM 45.0888 -122.8795 197° South  Level Estimated
Sat 05:30:19 PM 45.1997 -122.8211 191° South 72 83 3,000  Level Seattle Center
Sat 05:31:00 PM 45.0641 -122.8863 191° South  Level FlightAware Approximate
Sat 05:31:20 PM 45.1867 -122.8419 228° Southwest 71 82 3,400  Level Seattle Center
Sat 05:32:00 PM 45.0394 -122.8932 191° South  Level FlightAware Approximate
Sat 05:32:21 PM 45.1772 -122.8683 243° Southwest 69 79 3,900  Level Seattle Center
Sat 05:33:00 PM 45.0178 -122.9114 340° North  Level Estimated
Sat 05:33:22 PM 45.1575 -122.8792 201° Southwest 76 87 4,300  Level Seattle Center
Sat 05:34:22 PM 45.1342 -122.8747 172° South 82 94 4,700 347 Climbing Seattle Center
Sat 05:35:23 PM 45.1114 -122.8794 188° South 81 93 5,000 197 Climbing Seattle Center
Sat 05:36:24 PM 45.0836 -122.8817 183° South 89 102 5,100 49 Climbing Seattle Center
Sat 05:37:25 PM 45.0561 -122.8650 157° South 101 116 5,100  Level Seattle Center
Sat 05:38:26 PM 45.0311 -122.8442 150° Southeast 104 120 5,100 50 Level Seattle Center
Sat 05:39:26 PM 45.0078 -122.8203 144° Southeast 105 121 5,200 -50 Climbing Seattle Center
Sat 05:40:27 PM 44.9831 -122.8050 156° South 101 116 5,000 -49 Descending Seattle Center
Sat 05:41:28 PM 44.9603 -122.7869 151° Southeast 98 113 5,100 49 Climbing Seattle Center
Sat 05:42:29 PM 44.9356 -122.7750 161° South 95 109 5,100  Level Seattle Center
Sat 05:43:29 PM 44.9106 -122.7622 160° South 95 109 5,100 -50 Level Seattle Center
Sat 05:44:30 PM 44.8850 -122.7592 175° South 93 107 5,000 -49 Descending Seattle Center
Sat 05:45:31 PM 44.8594 -122.7592 180° South 92 106 5,000 49 Level Seattle Center
Sat 05:46:32 PM 44.8339 -122.7567 176° South 92 106 5,100 -50 Climbing Seattle Center
Sat 05:47:32 PM 44.8114 -122.7694 202° Southwest 90 104 4,900 -347 Descending Seattle Center
Sat 05:48:33 PM 44.7889 -122.7814 201° Southwest 88 101 4,400 -443 Descending Seattle Center
Sat 05:49:34 PM 44.7658 -122.7908 196° South 87 100 4,000 -198 Descending Seattle Center
Sat 05:50:34 PM 44.7481 -122.8092 216° Southwest 84 97 4,000 -99 Level Seattle Center
Sat 05:51:35 PM 44.7433 -122.8397 258° West 91 105 3,800 -393 Descending Seattle Center
Sat 05:52:36 PM 44.7556 -122.8692 300° West 90 104 3,200 -393 Descending Seattle Center
Sat 05:53:37 PM 44.7778 -122.8950 320° Northwest 87 100 3,000 -298 Descending Seattle Center
Sat 05:54:37 PM 44.8014 -122.9128 332° Northwest 90 104 2,600 -446 Descending Seattle Center
Sat 05:55:38 PM 44.8242 -122.9306 331° Northwest 93 107 2,100 -492 Descending Seattle Center
Sat 05:56:39 PM 44.8461 -122.9494 329° Northwest 93 107 1,600 -496 Descending Seattle Center
Sat 05:57:39 PM 44.8678 -122.9669 330° Northwest 92 106 1,100 -496 Descending Seattle Center
Sat 05:58:40 PM 44.8900 -122.9844 331° Northwest 92 106 600 -148 Descending Seattle Center
Sat 05:59:41 PM 44.9108 -123.0003 332° Northwest 89 102 800 344 Climbing Seattle Center
Sat 06:00:42 PM 44.9317 -123.0158 332° Northwest 86 99 1,300 496 Climbing Seattle Center
Sat 06:01:42 PM 44.9511 -123.0358 324° Northwest 87 100 1,800 496 Climbing Seattle Center
Sat 06:02:43 PM 44.9722 -123.0494 335° Northwest 85 98 2,300 492 Climbing Seattle Center
Sat 06:03:44 PM 44.9972 -123.0453 North 88 101 2,800 443 Climbing Seattle Center
Sat 06:04:45 PM 45.0100 -123.0175 57° Northeast 96 110 3,200 397 Climbing Seattle Center
Sat 06:05:45 PM 45.0119 -122.9800 86° East 96 110 3,600 397 Climbing Seattle Center
Sat 06:06:46 PM 45.0164 -122.9439 80° East 94 108 4,000 443 Climbing Seattle Center
Sat 06:07:47 PM 45.0206 -122.8986 83° East 96 110 4,500 480 Climbing Seattle Center
Sat 06:08:01 PM 45.0200 -122.8881 94° East 101 116 4,600  Climbing Seattle Center
Sat 06:08:26 PM 45.0211 -122.8725 84° East 107 123 4,500 -255 Descending Seattle Center
Sat 06:08:48 PM 45.0231 -122.8578 79° East 101 116 4,400 -444 Descending Seattle Center
Sat 06:09:20 PM 45.0256 -122.8403 79° East 101 116 4,100 -300 Descending Seattle Center
Sat 06:09:48 PM 45.0281 -122.8197 80° East 101 116 4,100 -247 Level Seattle Center
Sat 06:10:33 PM 45.0456 -122.8108 20° North 122 140 3,800 -393 Descending Seattle Center
Sat 06:10:49 PM 45.0525 -122.8089 11° North 103 119 3,700 -545 Descending Seattle Center
Sat 06:11:28 PM 45.0661 -122.8056 10° North 100 115 3,300 -590 Descending Seattle Center
Sat 06:11:50 PM 45.0778 -122.8025 10° North 96 110 3,100 -393 Descending Seattle Center
Sat 06:12:29 PM 45.0894 -122.8022 North 95 109 2,900 -590 Descending Seattle Center
Sat 06:12:51 PM 45.1042 -122.7983 11° North 96 110 2,500 -500 Descending Seattle Center
Sat 06:13:17 PM 45.1144 -122.7983 360° North 89 102 2,500 -400 Level Seattle Center
Sat 06:13:51 PM 45.1297 -122.7925 15° North 95 109 2,100 -442 Descending Seattle Center
Sat 06:14:52 PM 45.1519 -122.7850 13° North 95 109 1,800 -295 Descending Seattle Center

Login

Don't have an account? Register now (free) for customized features, flight alerts, and more!